Irvington on Hudson, New York
Current Conditions -  °F | °C
As of 11:56 AM on Tuesday 21 Oct 2014 (Local Time) from KHPN Reporting Station
Broken Clouds Broken Clouds  
Wind Chill: 64°   Ceiling: 5000
Heat Index: 64°   Visibility: 10mi
Dew Point: 51°   Wind: 7mph
Humidity: 63%   Direction: 90°E
Pressure: 29.88"   Gusts: 16mph
Location:  41.0402°N, 73.8532°W
Report Text: KHPN 211556Z 09006G14KT 10SM BKN050 18/11 A2988 RMK AO2 SLP118 T01780106
Loading
Personal Weather Stations






























Interactive Weather Map
Tropical Storm Tracking
New forecast layout! Learn more

10-Day Weather Forecast

Advertisements
Track Severe Weather on mobile